createdAt,value
2018-06-12T00:00:21.386Z,22.66
2018-06-12T00:01:21.382Z,22.69
2018-06-12T00:02:21.375Z,22.67
2018-06-12T00:03:21.568Z,22.72
2018-06-12T00:04:21.362Z,22.61
2018-06-12T00:05:21.356Z,22.67
2018-06-12T00:06:21.351Z,22.66
2018-06-12T00:07:21.344Z,22.66
2018-06-12T00:08:21.338Z,22.60
2018-06-12T00:09:21.334Z,22.61
2018-06-12T00:10:21.328Z,22.61
2018-06-12T00:11:21.321Z,22.57
2018-06-12T00:12:21.313Z,22.56
2018-06-12T00:13:21.308Z,22.56
2018-06-12T00:14:21.301Z,22.59
2018-06-12T00:15:21.297Z,22.48
2018-06-12T00:16:21.288Z,22.54
2018-06-12T00:17:21.287Z,22.46
2018-06-12T00:18:21.277Z,22.48
2018-06-12T00:19:21.270Z,22.41
2018-06-12T00:20:21.266Z,22.35
2018-06-12T00:21:21.263Z,22.42
2018-06-12T00:22:21.253Z,22.27
2018-06-12T00:23:21.245Z,22.26
2018-06-12T00:24:21.240Z,22.26
2018-06-12T00:25:21.234Z,22.27
2018-06-12T00:26:21.228Z,22.35
2018-06-12T00:27:21.221Z,22.23
2018-06-12T00:28:21.216Z,22.30
2018-06-12T00:29:21.210Z,22.27
2018-06-12T00:30:21.203Z,22.42
2018-06-12T00:31:21.196Z,22.30
2018-06-12T00:32:21.190Z,22.27
2018-06-12T00:33:21.183Z,22.39
2018-06-12T00:34:21.178Z,22.26
2018-06-12T00:35:21.173Z,22.27
2018-06-12T00:36:21.169Z,22.17
2018-06-12T00:37:21.159Z,22.15
2018-06-12T00:38:21.152Z,22.27
2018-06-12T00:39:21.346Z,22.15
2018-06-12T00:40:21.138Z,22.19
2018-06-12T00:41:21.135Z,22.21
2018-06-12T00:42:21.129Z,22.17
2018-06-12T00:43:21.128Z,22.15
2018-06-12T00:44:21.115Z,22.27
2018-06-12T00:45:21.108Z,22.12
2018-06-12T00:46:21.104Z,22.14
2018-06-12T00:47:21.095Z,22.15
2018-06-12T00:48:21.089Z,22.17
2018-06-12T00:49:21.084Z,22.08
2018-06-12T00:50:21.078Z,22.08
2018-06-12T00:51:21.070Z,22.01
2018-06-12T00:52:21.063Z,22.17
2018-06-12T00:53:21.059Z,22.02
2018-06-12T00:54:21.050Z,22.09
2018-06-12T00:55:21.047Z,22.04
2018-06-12T00:56:21.039Z,22.01
2018-06-12T00:57:21.032Z,22.01
2018-06-12T00:58:21.025Z,22.04
2018-06-12T00:59:21.019Z,22.02
2018-06-12T01:00:21.012Z,22.04
2018-06-12T01:01:21.006Z,21.99
2018-06-12T01:02:20.999Z,22.06
2018-06-12T01:03:20.992Z,22.01
2018-06-12T01:04:20.986Z,22.11
2018-06-12T01:05:20.981Z,22.05
2018-06-12T01:06:20.973Z,22.15
2018-06-12T01:07:20.968Z,22.02
2018-06-12T01:08:20.960Z,22.09
2018-06-12T01:09:20.954Z,21.99
2018-06-12T01:10:20.947Z,22.05
2018-06-12T01:11:20.941Z,22.04
2018-06-12T01:12:20.935Z,22.08
2018-06-12T01:13:20.928Z,22.02
2018-06-12T01:14:20.922Z,22.05
2018-06-12T01:15:20.920Z,22.01
2018-06-12T01:16:20.912Z,22.05
2018-06-12T01:17:20.904Z,22.05
2018-06-12T01:18:20.896Z,22.01
2018-06-12T01:19:20.891Z,22.02
2018-06-12T01:20:20.883Z,22.05
2018-06-12T01:21:20.877Z,21.91
2018-06-12T01:22:20.871Z,21.96
2018-06-12T01:23:20.865Z,21.91
2018-06-12T01:24:20.857Z,21.99
2018-06-12T01:25:20.851Z,21.96
2018-06-12T01:26:20.845Z,21.99
2018-06-12T01:27:20.837Z,22.02
2018-06-12T01:28:20.831Z,21.91
2018-06-12T01:29:20.825Z,21.79
2018-06-12T01:30:20.819Z,21.82
2018-06-12T01:31:20.811Z,21.91
2018-06-12T01:32:20.806Z,21.85
2018-06-12T01:33:20.799Z,21.91
2018-06-12T01:34:20.792Z,21.93
2018-06-12T01:35:20.785Z,21.79
2018-06-12T01:36:20.779Z,21.79
2018-06-12T01:37:20.776Z,21.74
2018-06-12T01:38:20.766Z,21.77
2018-06-12T01:39:20.758Z,21.79
2018-06-12T01:40:20.755Z,21.75
2018-06-12T01:41:20.746Z,21.79
2018-06-12T01:42:20.739Z,21.73
2018-06-12T01:43:20.732Z,21.71
2018-06-12T01:44:20.725Z,21.73
2018-06-12T01:45:20.719Z,21.64
2018-06-12T01:46:20.712Z,21.70
2018-06-12T01:47:20.706Z,21.67
2018-06-12T01:48:20.699Z,21.59
2018-06-12T01:49:20.692Z,21.70
2018-06-12T01:50:20.686Z,21.71
2018-06-12T01:51:20.678Z,21.73
2018-06-12T01:52:20.672Z,21.66
2018-06-12T01:53:20.666Z,21.71
2018-06-12T01:54:20.659Z,21.71
2018-06-12T01:55:20.654Z,21.64
2018-06-12T01:56:20.645Z,21.67
2018-06-12T01:57:20.639Z,21.71
2018-06-12T01:58:20.632Z,21.70
2018-06-12T01:59:20.631Z,21.71
2018-06-12T02:00:20.618Z,21.68
2018-06-12T02:01:20.612Z,21.75
2018-06-12T02:02:20.606Z,21.73
2018-06-12T02:03:20.798Z,21.73
2018-06-12T02:04:20.593Z,21.73
2018-06-12T02:05:20.585Z,21.64
2018-06-12T02:06:20.579Z,21.70
2018-06-12T02:07:20.572Z,21.67
2018-06-12T02:08:20.566Z,21.68
2018-06-12T02:09:20.759Z,21.68
2018-06-12T02:10:20.552Z,21.64
2018-06-12T02:11:20.545Z,21.68
2018-06-12T02:12:20.538Z,21.66
2018-06-12T02:13:20.531Z,21.63
2018-06-12T02:14:20.526Z,21.63
2018-06-12T02:15:20.517Z,21.67
2018-06-12T02:16:20.511Z,21.58
2018-06-12T02:17:20.507Z,21.66
2018-06-12T02:18:20.498Z,21.58
2018-06-12T02:19:20.491Z,21.58
2018-06-12T02:20:20.487Z,21.67
2018-06-12T02:21:20.479Z,21.66
2018-06-12T02:22:20.473Z,21.68
2018-06-12T02:23:20.464Z,21.56
2018-06-12T02:24:20.459Z,21.66
2018-06-12T02:25:20.455Z,21.64
2018-06-12T02:26:20.444Z,21.63
2018-06-12T02:27:20.436Z,21.63
2018-06-12T02:28:20.430Z,21.63
2018-06-12T02:29:20.427Z,21.63
2018-06-12T02:30:20.420Z,21.58
2018-06-12T02:31:20.409Z,21.55
2018-06-12T02:32:20.405Z,21.56
2018-06-12T02:33:20.398Z,21.52
2018-06-12T02:34:20.389Z,21.49
2018-06-12T02:35:20.382Z,21.52
2018-06-12T02:36:20.381Z,21.61
2018-06-12T02:37:20.368Z,21.53
2018-06-12T02:38:20.364Z,21.66
2018-06-12T02:39:20.354Z,21.59
2018-06-12T02:40:20.350Z,21.61
2018-06-12T02:41:20.345Z,21.38
2018-06-12T02:42:20.336Z,21.38
2018-06-12T02:43:20.327Z,21.30
2018-06-12T02:44:20.320Z,21.34
2018-06-12T02:45:20.313Z,21.31
2018-06-12T02:46:20.307Z,21.31
2018-06-12T02:47:20.299Z,21.24
2018-06-12T02:48:20.293Z,21.36
2018-06-12T02:49:20.286Z,21.34
2018-06-12T02:50:20.290Z,21.19
2018-06-12T02:51:20.273Z,21.24
2018-06-12T02:52:20.265Z,21.24
2018-06-12T02:53:20.260Z,21.28
2018-06-12T02:54:20.251Z,21.26
2018-06-12T02:55:20.243Z,21.30
2018-06-12T02:56:20.283Z,21.37
2018-06-12T02:57:20.229Z,21.31
2018-06-12T02:58:20.223Z,21.36
2018-06-12T02:59:20.215Z,21.19
2018-06-12T03:00:20.209Z,21.31
2018-06-12T03:01:20.204Z,21.15
2018-06-12T03:02:20.195Z,21.21
2018-06-12T03:03:20.187Z,21.31
2018-06-12T03:04:20.181Z,21.21
2018-06-12T03:05:20.175Z,21.19
2018-06-12T03:06:20.166Z,21.22
2018-06-12T03:07:20.159Z,21.24
2018-06-12T03:08:20.153Z,21.24
2018-06-12T03:09:20.146Z,21.22
2018-06-12T03:10:20.139Z,21.16
2018-06-12T03:11:20.131Z,21.24
2018-06-12T03:12:20.124Z,21.21
2018-06-12T03:13:20.117Z,21.18
2018-06-12T03:14:20.110Z,21.15
2018-06-12T03:15:20.102Z,21.16
2018-06-12T03:16:20.096Z,21.13
2018-06-12T03:17:20.089Z,21.08
2018-06-12T03:18:20.082Z,21.06
2018-06-12T03:19:20.073Z,21.09
2018-06-12T03:20:20.067Z,21.11
2018-06-12T03:21:20.060Z,21.12
2018-06-12T03:22:20.054Z,21.11
2018-06-12T03:23:20.103Z,21.12
2018-06-12T03:24:20.039Z,21.09
2018-06-12T03:25:20.031Z,21.08
2018-06-12T03:26:20.025Z,21.11
2018-06-12T03:27:20.016Z,21.13
2018-06-12T03:28:20.009Z,21.09
2018-06-12T03:29:20.003Z,21.03
2018-06-12T03:30:19.996Z,21.06
2018-06-12T03:31:19.989Z,21.11
2018-06-12T03:32:19.983Z,21.06
2018-06-12T03:33:19.974Z,21.11
2018-06-12T03:34:19.967Z,21.08
2018-06-12T03:35:19.959Z,21.09
2018-06-12T03:36:19.951Z,21.09
2018-06-12T03:37:19.944Z,21.11
2018-06-12T03:38:19.938Z,21.19
2018-06-12T03:39:19.930Z,21.16
2018-06-12T03:40:19.923Z,21.15
2018-06-12T03:41:19.917Z,21.13
2018-06-12T03:42:19.909Z,21.18
2018-06-12T03:43:19.901Z,21.21
2018-06-12T03:44:19.894Z,21.19
2018-06-12T03:45:19.887Z,21.15
2018-06-12T03:46:19.880Z,21.16
2018-06-12T03:47:19.872Z,21.09
2018-06-12T03:48:19.867Z,21.05
2018-06-12T03:49:19.858Z,21.09
2018-06-12T03:50:19.851Z,21.05
2018-06-12T03:51:19.844Z,20.98
2018-06-12T03:52:19.836Z,21.11
2018-06-12T03:53:19.829Z,21.06
2018-06-12T03:54:19.823Z,21.03
2018-06-12T03:55:19.814Z,21.06
2018-06-12T03:56:19.807Z,21.08
2018-06-12T03:57:19.802Z,21.06
2018-06-12T03:58:19.793Z,21.03
2018-06-12T03:59:19.784Z,21.12
2018-06-12T04:00:19.778Z,21.05
2018-06-12T04:01:19.790Z,21.05
2018-06-12T04:02:19.766Z,21.06
2018-06-12T04:03:19.756Z,21.03
2018-06-12T04:04:19.749Z,21.01
2018-06-12T04:05:19.742Z,21.03
2018-06-12T04:06:19.735Z,21.05
2018-06-12T04:07:19.726Z,21.03
2018-06-12T04:08:19.719Z,21.00
2018-06-12T04:09:19.769Z,21.08
2018-06-12T04:10:19.706Z,21.05
2018-06-12T04:11:19.697Z,21.06
2018-06-12T04:12:19.692Z,21.12
2018-06-12T04:13:19.685Z,21.08
2018-06-12T04:14:19.676Z,21.11
2018-06-12T04:15:19.714Z,21.15
2018-06-12T04:16:19.661Z,21.08
2018-06-12T04:17:19.654Z,21.06
2018-06-12T04:18:19.647Z,21.03
2018-06-12T04:19:19.639Z,21.11
2018-06-12T04:20:19.632Z,21.11
2018-06-12T04:21:19.826Z,21.06
2018-06-12T04:22:19.618Z,21.09
2018-06-12T04:23:19.610Z,21.11
2018-06-12T04:24:19.604Z,21.08
2018-06-12T04:25:19.599Z,21.11
2018-06-12T04:26:19.591Z,21.12
2018-06-12T04:27:19.581Z,21.05
2018-06-12T04:28:19.577Z,21.03
2018-06-12T04:29:19.567Z,21.01
2018-06-12T04:30:19.560Z,20.87
2018-06-12T04:31:19.552Z,20.90
2018-06-12T04:32:19.545Z,21.00
2018-06-12T04:33:19.538Z,20.93
2018-06-12T04:34:19.531Z,20.97
2018-06-12T04:35:19.523Z,21.00
2018-06-12T04:36:19.517Z,21.00
2018-06-12T04:37:19.509Z,20.94
2018-06-12T04:38:19.502Z,21.00
2018-06-12T04:39:19.494Z,21.01
2018-06-12T04:40:19.488Z,20.94
2018-06-12T04:41:19.483Z,20.93
2018-06-12T04:42:19.472Z,20.91
2018-06-12T04:43:19.526Z,20.87
2018-06-12T04:44:19.460Z,20.91
2018-06-12T04:45:19.454Z,20.93
2018-06-12T04:46:19.444Z,20.82
2018-06-12T04:47:19.436Z,20.88
2018-06-12T04:48:19.429Z,20.82
2018-06-12T04:49:19.421Z,20.75
2018-06-12T04:50:19.439Z,20.63
2018-06-12T04:51:19.406Z,20.56
2018-06-12T04:52:19.402Z,20.56
2018-06-12T04:53:19.392Z,20.48
2018-06-12T04:54:19.385Z,20.56
2018-06-12T04:55:19.378Z,20.53
2018-06-12T04:56:19.369Z,20.56
2018-06-12T04:57:19.566Z,20.42
2018-06-12T04:58:19.354Z,20.51
2018-06-12T04:59:19.346Z,20.51
2018-06-12T05:00:19.339Z,20.56
2018-06-12T05:01:19.332Z,20.46
2018-06-12T05:02:19.324Z,20.53
2018-06-12T05:03:19.316Z,20.51
2018-06-12T05:04:19.309Z,20.54
2018-06-12T05:05:19.302Z,20.44
2018-06-12T05:06:19.294Z,20.37
2018-06-12T05:07:19.285Z,20.51
2018-06-12T05:08:19.282Z,20.41
2018-06-12T05:09:19.270Z,20.34
2018-06-12T05:10:19.265Z,20.33
2018-06-12T05:11:19.255Z,20.23
2018-06-12T05:12:19.247Z,20.20
2018-06-12T05:13:19.242Z,20.19
2018-06-12T05:14:19.233Z,20.22
2018-06-12T05:15:19.224Z,20.33
2018-06-12T05:16:19.217Z,20.33
2018-06-12T05:17:19.210Z,20.25
2018-06-12T05:18:19.203Z,20.30
2018-06-12T05:19:19.194Z,20.27
2018-06-12T05:20:19.188Z,20.23
2018-06-12T05:21:19.179Z,20.25
2018-06-12T05:22:19.171Z,20.20
2018-06-12T05:23:19.163Z,20.15
2018-06-12T05:24:19.155Z,20.23
2018-06-12T05:25:19.148Z,20.19
2018-06-12T05:26:19.144Z,20.26
2018-06-12T05:27:19.135Z,20.15
2018-06-12T05:28:19.125Z,20.15
2018-06-12T05:29:19.117Z,20.20
2018-06-12T05:30:19.111Z,20.20
2018-06-12T05:31:19.101Z,20.15
2018-06-12T05:32:19.093Z,20.17
2018-06-12T05:33:19.089Z,20.12
2018-06-12T05:34:19.082Z,20.15
2018-06-12T05:35:19.069Z,20.12
2018-06-12T05:36:19.062Z,20.13
2018-06-12T05:37:19.054Z,20.13
2018-06-12T05:38:19.047Z,20.13
2018-06-12T05:39:19.039Z,20.13
2018-06-12T05:40:19.031Z,20.15
2018-06-12T05:41:19.024Z,20.13
2018-06-12T05:42:19.015Z,20.05
2018-06-12T05:43:19.006Z,20.13
2018-06-12T05:44:18.998Z,20.13
2018-06-12T05:45:19.192Z,20.01
2018-06-12T05:46:18.983Z,19.97
2018-06-12T05:47:18.975Z,19.95
2018-06-12T05:48:18.969Z,19.90
2018-06-12T05:49:18.960Z,19.95
2018-06-12T05:50:18.952Z,19.98
2018-06-12T05:51:18.943Z,19.95
2018-06-12T05:52:18.936Z,19.82
2018-06-12T05:53:18.933Z,19.80
2018-06-12T05:54:18.920Z,19.90
2018-06-12T05:55:18.956Z,19.94
2018-06-12T05:56:18.904Z,19.82
2018-06-12T05:57:18.902Z,19.85
2018-06-12T05:58:18.890Z,19.85
2018-06-12T05:59:18.880Z,19.85
2018-06-12T06:00:18.872Z,19.87
2018-06-12T06:01:18.895Z,19.87
2018-06-12T06:02:18.856Z,19.85
2018-06-12T06:03:18.847Z,19.85
2018-06-12T06:04:18.839Z,19.78
2018-06-12T06:05:18.832Z,19.80
2018-06-12T06:06:18.824Z,19.82
2018-06-12T06:07:18.816Z,19.82
2018-06-12T06:08:18.807Z,19.82
2018-06-12T06:09:18.800Z,19.86
2018-06-12T06:10:18.792Z,19.79
2018-06-12T06:11:18.788Z,19.68
2018-06-12T06:12:18.780Z,19.76
2018-06-12T06:13:18.768Z,19.83
2018-06-12T06:14:18.813Z,19.85
2018-06-12T06:15:18.951Z,19.80
2018-06-12T06:16:18.743Z,19.82
2018-06-12T06:17:18.736Z,19.85
2018-06-12T06:18:18.727Z,19.83
2018-06-12T06:19:18.719Z,19.86
2018-06-12T06:20:18.710Z,19.80
2018-06-12T06:21:18.905Z,19.83
2018-06-12T06:22:18.695Z,19.85
2018-06-12T06:23:18.686Z,19.83
2018-06-12T06:24:18.678Z,19.78
2018-06-12T06:25:18.670Z,19.82
2018-06-12T06:26:18.663Z,19.76
2018-06-12T06:27:18.653Z,19.83
2018-06-12T06:28:18.650Z,19.79
2018-06-12T06:29:18.637Z,19.85
2018-06-12T06:30:18.630Z,19.62
2018-06-12T06:31:18.624Z,19.75
2018-06-12T06:32:18.613Z,19.79
2018-06-12T06:33:18.605Z,19.72
2018-06-12T06:34:18.597Z,19.62
2018-06-12T06:35:18.589Z,19.68
2018-06-12T06:36:18.602Z,19.75
2018-06-12T06:37:18.572Z,19.62
2018-06-12T06:38:18.565Z,19.60
2018-06-12T06:39:18.557Z,19.62
2018-06-12T06:40:18.548Z,19.65
2018-06-12T06:41:18.540Z,19.70
2018-06-12T06:42:18.531Z,19.62
2018-06-12T06:43:18.523Z,19.58
2018-06-12T06:44:18.515Z,19.61
2018-06-12T06:45:18.507Z,19.62
2018-06-12T06:46:18.499Z,19.60
2018-06-12T06:47:18.490Z,19.57
2018-06-12T06:48:18.482Z,19.61
2018-06-12T06:49:18.474Z,19.60
2018-06-12T06:50:18.466Z,19.71
2018-06-12T06:51:18.457Z,19.67
2018-06-12T06:52:18.449Z,19.53
2018-06-12T06:53:18.443Z,19.62
2018-06-12T06:54:18.433Z,19.58
2018-06-12T06:55:18.428Z,19.49
2018-06-12T06:56:18.416Z,19.57
2018-06-12T06:57:18.408Z,19.55
2018-06-12T06:58:18.400Z,19.50
2018-06-12T06:59:18.391Z,19.43
2018-06-12T07:00:18.384Z,19.53
2018-06-12T07:01:18.375Z,19.53
2018-06-12T07:02:18.367Z,19.49
2018-06-12T07:03:18.357Z,19.38
2018-06-12T07:04:18.349Z,19.38
2018-06-12T07:05:18.340Z,19.43
2018-06-12T07:06:18.333Z,19.34
2018-06-12T07:07:18.324Z,19.34
2018-06-12T07:08:18.315Z,19.34
2018-06-12T07:09:18.307Z,19.24
2018-06-12T07:10:18.300Z,19.15
2018-06-12T07:11:18.292Z,19.15
2018-06-12T07:12:18.282Z,18.99
2018-06-12T07:13:18.273Z,19.13
2018-06-12T07:14:18.265Z,19.06
2018-06-12T07:15:18.256Z,19.02
2018-06-12T07:16:18.247Z,19.02
2018-06-12T07:17:18.240Z,19.05
2018-06-12T07:18:18.233Z,19.09
2018-06-12T07:19:18.222Z,19.09
2018-06-12T07:20:18.215Z,19.02
2018-06-12T07:21:18.208Z,19.05
2018-06-12T07:22:18.196Z,19.15
2018-06-12T07:23:18.189Z,19.13
2018-06-12T07:24:18.179Z,19.05
2018-06-12T07:25:18.171Z,19.06
2018-06-12T07:26:18.163Z,19.10
2018-06-12T07:27:18.153Z,19.07
2018-06-12T07:28:18.145Z,19.07
2018-06-12T07:29:18.137Z,19.01
2018-06-12T07:30:18.129Z,19.12
2018-06-12T07:31:18.119Z,19.12
2018-06-12T07:32:18.139Z,19.16
2018-06-12T07:33:18.303Z,19.07
2018-06-12T07:34:18.095Z,19.09
2018-06-12T07:35:18.086Z,19.10
2018-06-12T07:36:18.077Z,19.12
2018-06-12T07:37:18.071Z,19.17
2018-06-12T07:38:18.060Z,19.15
2018-06-12T07:39:18.052Z,19.16
2018-06-12T07:40:18.043Z,19.15
2018-06-12T07:41:18.035Z,19.16
2018-06-12T07:42:18.030Z,19.16
2018-06-12T07:43:18.017Z,19.23
2018-06-12T07:44:18.009Z,19.21
2018-06-12T07:45:18.002Z,19.16
2018-06-12T07:46:17.994Z,19.15
2018-06-12T07:47:17.984Z,19.16
2018-06-12T07:48:17.976Z,19.17
2018-06-12T07:49:17.967Z,19.21
2018-06-12T07:50:17.959Z,19.16
2018-06-12T07:51:17.950Z,19.12
2018-06-12T07:52:17.943Z,18.96
2018-06-12T07:53:17.935Z,19.09
2018-06-12T07:54:17.925Z,19.07
2018-06-12T07:55:17.916Z,19.05
2018-06-12T07:56:17.912Z,19.07
2018-06-12T07:57:18.099Z,19.02
2018-06-12T07:58:17.892Z,19.09
2018-06-12T07:59:17.881Z,19.06
2018-06-12T08:00:17.877Z,19.07
2018-06-12T08:01:17.865Z,19.02
2018-06-12T08:02:17.857Z,19.15
2018-06-12T08:03:17.847Z,19.07
2018-06-12T08:04:17.839Z,19.07
2018-06-12T08:05:17.831Z,19.10
2018-06-12T08:06:17.822Z,19.06
2018-06-12T08:07:17.813Z,19.12
2018-06-12T08:08:17.806Z,19.09
2018-06-12T08:09:17.796Z,19.05
2018-06-12T08:10:17.788Z,18.97
2018-06-12T08:11:17.779Z,19.01
2018-06-12T08:12:17.771Z,19.12
2018-06-12T08:13:17.763Z,18.96
2018-06-12T08:14:17.753Z,19.09
2018-06-12T08:15:17.947Z,19.12
2018-06-12T08:16:17.737Z,19.10
2018-06-12T08:17:17.730Z,19.10
2018-06-12T08:18:17.719Z,19.10
2018-06-12T08:19:17.712Z,19.10
2018-06-12T08:20:17.703Z,19.05
2018-06-12T08:21:17.894Z,19.09
2018-06-12T08:22:17.686Z,19.15
2018-06-12T08:23:17.676Z,19.15
2018-06-12T08:24:17.668Z,19.15
2018-06-12T08:25:17.662Z,19.05
2018-06-12T08:26:17.651Z,19.10
2018-06-12T08:27:17.643Z,19.05
2018-06-12T08:28:17.634Z,19.05
2018-06-12T08:29:17.625Z,19.05
2018-06-12T08:30:17.749Z,19.10
2018-06-12T08:31:17.607Z,19.10
2018-06-12T08:32:17.599Z,19.10
2018-06-12T08:33:17.590Z,19.09
2018-06-12T08:34:17.582Z,19.09
2018-06-12T08:35:17.572Z,19.07
2018-06-12T08:36:17.565Z,18.99
2018-06-12T08:37:17.557Z,19.10
2018-06-12T08:38:17.548Z,19.12
2018-06-12T08:39:17.538Z,19.10
2018-06-12T08:40:17.530Z,19.10
2018-06-12T08:41:17.522Z,19.09
2018-06-12T08:42:17.514Z,19.13
2018-06-12T08:43:17.504Z,19.09
2018-06-12T08:44:17.496Z,19.12
2018-06-12T08:45:17.487Z,19.02
2018-06-12T08:46:17.480Z,19.17
2018-06-12T08:47:17.470Z,19.17
2018-06-12T08:48:17.465Z,19.13
2018-06-12T08:49:17.455Z,19.07
2018-06-12T08:50:17.447Z,18.94
2018-06-12T08:51:17.637Z,19.02
2018-06-12T08:52:17.428Z,18.97
2018-06-12T08:53:17.419Z,18.96
2018-06-12T08:54:17.412Z,18.96
2018-06-12T08:55:17.404Z,18.90
2018-06-12T08:56:17.393Z,18.93
2018-06-12T08:57:17.385Z,18.94
2018-06-12T08:58:17.375Z,18.99
2018-06-12T08:59:17.367Z,19.10
2018-06-12T09:00:17.360Z,19.05
2018-06-12T09:01:17.353Z,19.01
2018-06-12T09:02:17.341Z,19.12
2018-06-12T09:03:17.332Z,19.05
2018-06-12T09:04:17.326Z,19.07
2018-06-12T09:05:17.315Z,19.10
2018-06-12T09:06:17.307Z,19.10
2018-06-12T09:07:17.298Z,19.09
2018-06-12T09:08:17.289Z,19.12
2018-06-12T09:09:17.281Z,19.21
2018-06-12T09:10:17.273Z,19.15
2018-06-12T09:11:17.264Z,19.12
2018-06-12T09:12:17.255Z,19.09
2018-06-12T09:13:17.248Z,19.12
2018-06-12T09:14:17.240Z,19.07
2018-06-12T09:15:17.429Z,19.16
2018-06-12T09:16:17.223Z,19.06
2018-06-12T09:17:17.213Z,19.12
2018-06-12T09:18:17.208Z,19.12
2018-06-12T09:19:17.196Z,19.13
2018-06-12T09:20:17.186Z,19.10
2018-06-12T09:21:17.179Z,19.13
2018-06-12T09:22:17.171Z,19.07
2018-06-12T09:23:17.160Z,19.12
2018-06-12T09:24:17.151Z,19.09
2018-06-12T09:25:17.144Z,19.01
2018-06-12T09:26:17.136Z,19.01
2018-06-12T09:27:17.125Z,19.09
2018-06-12T09:28:17.117Z,18.99
2018-06-12T09:29:17.109Z,19.05
2018-06-12T09:30:17.101Z,18.99
2018-06-12T09:31:17.091Z,19.06
2018-06-12T09:32:17.085Z,19.05
2018-06-12T09:33:17.076Z,19.07
2018-06-12T09:34:17.066Z,19.02
2018-06-12T09:35:17.057Z,19.10
2018-06-12T09:36:17.048Z,19.13
2018-06-12T09:37:17.047Z,19.15
2018-06-12T09:38:17.035Z,19.10
2018-06-12T09:39:17.023Z,19.21
2018-06-12T09:40:17.013Z,19.12
2018-06-12T09:41:17.006Z,19.16
2018-06-12T09:42:16.997Z,19.27
2018-06-12T09:43:16.988Z,19.28
2018-06-12T09:44:16.981Z,19.23
2018-06-12T09:45:17.172Z,19.30
2018-06-12T09:46:16.963Z,19.25
2018-06-12T09:47:16.954Z,19.38
2018-06-12T09:48:16.946Z,19.32
2018-06-12T09:49:16.938Z,19.38
2018-06-12T09:50:16.930Z,19.43
2018-06-12T09:51:16.920Z,19.35
2018-06-12T09:52:16.912Z,19.35
2018-06-12T09:53:16.904Z,19.34
2018-06-12T09:54:16.896Z,19.38
2018-06-12T09:55:16.886Z,19.35
2018-06-12T09:56:16.878Z,19.30
2018-06-12T09:57:16.870Z,19.31
2018-06-12T09:58:16.862Z,19.35
2018-06-12T09:59:16.853Z,19.35
2018-06-12T10:00:16.844Z,19.46
2018-06-12T10:01:16.836Z,19.52
2018-06-12T10:02:16.828Z,19.46
2018-06-12T10:03:16.819Z,19.52
2018-06-12T10:04:16.811Z,19.52
2018-06-12T10:05:16.803Z,19.60
2018-06-12T10:06:16.794Z,19.50
2018-06-12T10:07:16.786Z,19.53
2018-06-12T10:08:16.778Z,19.47
2018-06-12T10:09:16.992Z,19.57
2018-06-12T10:10:16.761Z,19.62
2018-06-12T10:11:16.752Z,19.62
2018-06-12T10:12:16.744Z,19.55
2018-06-12T10:13:16.736Z,19.58
2018-06-12T10:14:16.728Z,19.53
2018-06-12T10:15:16.719Z,19.58
2018-06-12T10:16:16.711Z,19.57
2018-06-12T10:17:16.703Z,19.57
2018-06-12T10:18:16.695Z,19.61
2018-06-12T10:19:16.686Z,19.61
2018-06-12T10:20:16.678Z,19.67
2018-06-12T10:21:16.870Z,19.62
2018-06-12T10:22:16.662Z,19.71
2018-06-12T10:23:16.654Z,19.78
2018-06-12T10:24:16.645Z,19.68
2018-06-12T10:25:16.637Z,19.75
2018-06-12T10:26:16.632Z,19.75
2018-06-12T10:27:16.620Z,19.76
2018-06-12T10:28:16.612Z,19.68
2018-06-12T10:29:16.604Z,19.85
2018-06-12T10:30:16.599Z,19.71
2018-06-12T10:31:16.586Z,19.82
2018-06-12T10:32:16.579Z,19.82
2018-06-12T10:33:16.571Z,19.83
2018-06-12T10:34:16.563Z,19.86
2018-06-12T10:35:16.558Z,19.83
2018-06-12T10:36:16.546Z,19.92
2018-06-12T10:37:16.583Z,19.82
2018-06-12T10:38:16.531Z,19.94
2018-06-12T10:39:16.543Z,19.90
2018-06-12T10:40:16.514Z,19.95
2018-06-12T10:41:16.507Z,19.95
2018-06-12T10:42:16.498Z,19.92
2018-06-12T10:43:16.492Z,19.94
2018-06-12T10:44:16.481Z,20.05
2018-06-12T10:45:16.473Z,19.95
2018-06-12T10:46:16.466Z,20.02
2018-06-12T10:47:16.457Z,20.01
2018-06-12T10:48:16.449Z,19.98
2018-06-12T10:49:16.442Z,20.12
2018-06-12T10:50:16.434Z,20.13
2018-06-12T10:51:16.425Z,20.10
2018-06-12T10:52:16.419Z,20.08
2018-06-12T10:53:16.409Z,19.98
2018-06-12T10:54:16.400Z,20.08
2018-06-12T10:55:16.391Z,20.15
2018-06-12T10:56:16.384Z,20.12
2018-06-12T10:57:16.376Z,20.05
2018-06-12T10:58:16.369Z,20.12
2018-06-12T10:59:16.360Z,20.20
2018-06-12T11:00:16.352Z,20.20
2018-06-12T11:01:16.344Z,20.23
2018-06-12T11:02:16.336Z,20.20
2018-06-12T11:03:16.327Z,20.23
2018-06-12T11:04:16.319Z,20.23
2018-06-12T11:05:16.312Z,20.27
2018-06-12T11:06:16.304Z,20.30
2018-06-12T11:07:16.295Z,20.30
2018-06-12T11:08:16.289Z,20.33
2018-06-12T11:09:16.281Z,20.35
2018-06-12T11:10:16.275Z,20.37
2018-06-12T11:11:16.263Z,20.35
2018-06-12T11:12:16.256Z,20.34
2018-06-12T11:13:16.247Z,20.40
2018-06-12T11:14:16.240Z,20.53
2018-06-12T11:15:16.231Z,20.50
2018-06-12T11:16:16.225Z,20.46
2018-06-12T11:17:16.216Z,20.60
2018-06-12T11:18:16.211Z,20.57
2018-06-12T11:19:16.200Z,20.60
2018-06-12T11:20:16.192Z,20.54
2018-06-12T11:21:16.185Z,20.64
2018-06-12T11:22:16.178Z,20.68
2018-06-12T11:23:16.169Z,20.61
2018-06-12T11:24:16.161Z,20.69
2018-06-12T11:25:16.154Z,20.72
2018-06-12T11:26:16.146Z,20.71
2018-06-12T11:27:16.190Z,20.73
2018-06-12T11:28:16.131Z,20.79
2018-06-12T11:29:16.123Z,20.87
2018-06-12T11:30:16.119Z,21.01
2018-06-12T11:31:16.108Z,21.03
2018-06-12T11:32:16.100Z,21.18
2018-06-12T11:33:16.092Z,21.21
2018-06-12T11:34:16.085Z,21.28
2018-06-12T11:35:16.077Z,21.27
2018-06-12T11:36:16.070Z,21.48
2018-06-12T11:37:16.063Z,21.93
2018-06-12T11:38:16.056Z,22.21
2018-06-12T11:39:16.248Z,22.29
2018-06-12T11:40:16.043Z,22.36
2018-06-12T11:41:16.036Z,22.44
2018-06-12T11:42:16.029Z,22.44
2018-06-12T11:43:16.019Z,22.52
2018-06-12T11:45:16.013Z,22.74
2018-06-12T11:46:15.999Z,22.94
2018-06-12T11:47:15.992Z,23.09
2018-06-12T11:48:15.986Z,23.35
2018-06-12T11:49:15.979Z,23.44
2018-06-12T11:50:15.974Z,23.67
2018-06-12T11:51:15.967Z,23.69
2018-06-12T11:52:15.960Z,23.77
2018-06-12T11:53:15.956Z,23.75
2018-06-12T11:54:15.949Z,23.89
2018-06-12T11:55:16.143Z,23.94
2018-06-12T11:56:15.938Z,24.05
2018-06-12T11:57:15.932Z,24.21
2018-06-12T11:58:15.925Z,24.24
2018-06-12T11:59:15.919Z,24.24
2018-06-12T12:00:15.913Z,24.37
2018-06-12T12:01:15.939Z,24.36
2018-06-12T12:02:15.902Z,24.39
2018-06-12T12:03:15.896Z,24.49
2018-06-12T12:04:15.891Z,24.63
2018-06-12T12:05:15.886Z,24.63
2018-06-12T12:06:15.881Z,24.80
2018-06-12T12:07:15.874Z,24.80
2018-06-12T12:08:15.870Z,24.97
2018-06-12T12:09:15.865Z,24.92
2018-06-12T12:10:15.860Z,24.92
2018-06-12T12:11:15.856Z,25.16
2018-06-12T12:12:15.850Z,25.09
2018-06-12T12:13:15.846Z,25.22
2018-06-12T12:14:15.842Z,25.12
2018-06-12T12:15:15.838Z,25.01
2018-06-12T12:16:15.832Z,25.02
2018-06-12T12:17:15.825Z,24.93
2018-06-12T12:18:15.821Z,24.90
2018-06-12T12:19:15.819Z,24.99
2018-06-12T12:20:15.811Z,25.09
2018-06-12T12:21:15.807Z,25.31
2018-06-12T12:22:15.803Z,25.39
2018-06-12T12:23:15.815Z,25.42
2018-06-12T12:24:15.806Z,25.46
2018-06-12T12:25:15.790Z,25.79
2018-06-12T12:26:15.784Z,25.78
2018-06-12T12:27:15.779Z,25.69
2018-06-12T12:28:15.777Z,25.78
2018-06-12T12:29:15.770Z,25.75
2018-06-12T12:30:15.767Z,25.76
2018-06-12T12:31:15.762Z,25.51
2018-06-12T12:32:15.759Z,25.59
2018-06-12T12:33:15.772Z,25.76
2018-06-12T12:34:15.781Z,25.76
2018-06-12T12:35:15.770Z,25.79
2018-06-12T12:36:15.761Z,25.74
2018-06-12T12:37:15.767Z,25.89
2018-06-12T12:38:15.757Z,25.94
2018-06-12T12:39:15.759Z,25.78
2018-06-12T12:40:15.748Z,25.82
2018-06-12T12:41:15.754Z,26.13
2018-06-12T12:42:15.749Z,25.60
2018-06-12T12:43:15.720Z,25.67
2018-06-12T12:44:15.729Z,25.75
2018-06-12T12:45:15.730Z,25.48
2018-06-12T12:46:15.721Z,25.49
2018-06-12T12:47:15.728Z,25.29
2018-06-12T12:48:15.758Z,25.34
2018-06-12T12:49:15.714Z,25.26
2018-06-12T12:50:15.700Z,25.41
2018-06-12T12:51:15.711Z,25.42
2018-06-12T12:52:15.699Z,25.44
2018-06-12T12:53:15.691Z,25.53